Venters, Kentucky
Current Conditions -  °F | °C
As of 3:35 AM on Friday 28 Nov 2014 (Local Time) from KPBX Reporting Station
Overcast Overcast  
Wind Chill: 28°   Ceiling: 3600
Heat Index: 28°   Visibility: 10mi
Dew Point: 22°   Wind: 0mph
Humidity: 80%   Direction: NA
Pressure: 30.34"   Gusts: NA
Location:  37.3089°N, 82.3418°W
Report Text: KPBX 280835Z AUTO 00000KT 10SM SCT016 OVC036 M02/M05 A3034 RMK AO2 T10251055
Loading
Personal Weather Stations






























Interactive Weather Map New forecast layout! Learn more

10-Day Weather Forecast

Advertisements
Track Severe Weather on mobile